Stormwatcher's Retreat Logo




                  Temp     Hi    Low   Out    Dew  Wind  Wind   Wind    Hi    Hi   Wind   Heat    THW   THSW                Rain  Solar   Solar Hi Solar   UV    UV    Hi     Heat    Cool    In     In    In     In     In   In Air          Wind  Wind    ISS   Arc.
  Date    Time     Out   Temp   Temp   Hum    Pt. Speed   Dir    Run Speed   Dir  Chill  Index  Index  Index   Bar    Rain  Rate   Rad.  Energy    Rad.  Index  Dose   UV     D-D     D-D    Temp   Hum    Dew   Heat    EMC Density     ET   Samp   Tx   Recept  Int.
------------------------------------------------------------------------------------------------------------------------------------------------------------------------------------------------------------------------------------------------------------------------
 7/06/20 12:10a   57.4   57.5   57.3    86   53.2   1.0   ENE   0.17   3.0   ENE   57.4   57.3   57.3   54.4  30.135  0.00  0.00     0     0.00      0     0.0  0.00   0.0   0.053   0.000   74.6    54   56.9   74.9   9.86  .0737    0.000   121    7     61.1   10 
 7/06/20 12:20a   57.5   57.5   57.4    86   53.3   1.0   ENE   0.17   4.0   ENE   57.5   57.4   57.4   54.5  30.135  0.00  0.00     0     0.00      0     0.0  0.00   0.0   0.052   0.000   74.6    54   56.9   74.9   9.86  .0737    0.000   204    7    100.0   10 
 7/06/20 12:30a   57.4   57.5   57.4    85   52.9   1.0   ENE   0.17   4.0   ENE   57.4   57.3   57.3   54.3  30.139  0.00  0.00     0     0.00      0     0.0  0.00   0.0   0.053   0.000   74.5    54   56.8   74.8   9.86  .0737    0.000   204    7    100.0   10 
 7/06/20 12:40a   57.4   57.5   57.4    85   52.9   1.0   ENE   0.17   2.0   ENE   57.4   57.3   57.3   54.3  30.136  0.00  0.00     0     0.00      0     0.0  0.00   0.0   0.053   0.000   74.5    54   56.8   74.8   9.86  .0737    0.000   204    7    100.0   10 
 7/06/20 12:50a   57.5   57.5   57.4    85   53.0   1.0   ENE   0.17   2.0   ENE   57.5   57.4   57.4   54.5  30.135  0.00  0.00     0     0.00      0     0.0  0.00   0.0   0.052   0.000   74.4    54   56.7   74.6   9.86  .0737    0.000   203    7    100.0   10 
 7/06/20  1:00a   57.5   57.5   57.4    85   53.0   1.0   ENE   0.17   3.0   ENE   57.5   57.4   57.4   54.5  30.136  0.00  0.00     0     0.00      0     0.0  0.00   0.0   0.052   0.000   74.4    54   56.7   74.6   9.86  .0737    0.001   204    7    100.0   10 
 7/06/20  1:10a   57.5   57.5   57.4    85   53.0   1.0   ENE   0.17   3.0   ENE   57.5   57.4   57.4   54.5  30.134  0.00  0.00     0     0.00      0     0.0  0.00   0.0   0.052   0.000   74.4    54   56.7   74.6   9.86  .0737    0.000   201    7    100.0   10 
 7/06/20  1:20a   57.3   57.5   57.3    85   52.8   1.0   ENE   0.17   3.0   ENE   57.3   57.2   57.2   54.2  30.132  0.00  0.00     0     0.00      0     0.0  0.00   0.0   0.053   0.000   74.3    54   56.6   74.5   9.86  .0737    0.000   204    7    100.0   10 
 7/06/20  1:30a   57.3   57.4   57.3    85   52.8   0.0   ENE   0.00   2.0   ENE   57.3   57.2   57.2   54.2  30.130  0.00  0.00     0     0.00      0     0.0  0.00   0.0   0.053   0.000   74.3    54   56.6   74.5   9.86  .0737    0.000   203    7    100.0   10 
 7/06/20  1:40a   57.2   57.3   57.2    86   53.0   0.0   ENE   0.00   3.0   ENE   57.2   57.1   57.1   54.2  30.130  0.00  0.00     0     0.00      0     0.0  0.00   0.0   0.054   0.000   74.3    54   56.6   74.5   9.86  .0737    0.000   204    7    100.0   10 
 7/06/20  1:50a   57.1   57.2   57.1    85   52.6   0.0   ENE   0.00   1.0   ENE   57.1   57.0   57.0   54.0  30.129  0.00  0.00     0     0.00      0     0.0  0.00   0.0   0.055   0.000   74.2    54   56.5   74.4   9.87  .0737    0.000   202    7    100.0   10 
 7/06/20  2:00a   57.0   57.1   57.0    86   52.9   0.0   ENE   0.00   1.0   ENE   57.0   56.9   56.9   53.9  30.127  0.00  0.00     0     0.00      0     0.0  0.00   0.0   0.056   0.000   74.2    54   56.5   74.4   9.87  .0737    0.000   205    7    100.0   10 
 7/06/20  2:10a   56.8   57.0   56.8    86   52.7   0.0   ENE   0.00   1.0   ENE   56.8   56.7   56.7   53.7  30.127  0.00  0.00     0     0.00      0     0.0  0.00   0.0   0.057   0.000   74.2    54   56.5   74.4   9.87  .0737    0.000   203    7    100.0   10 
 7/06/20  2:20a   56.9   56.9   56.8    87   53.1   0.0   ENE   0.00   2.0   ESE   56.9   56.9   56.9   54.0  30.124  0.00  0.00     0     0.00      0     0.0  0.00   0.0   0.056   0.000   74.1    54   56.4   74.2   9.87  .0737    0.000   203    7    100.0   10 
 7/06/20  2:30a   57.0   57.0   56.8    87   53.2   0.0   ESE   0.00   3.0   ESE   57.0   57.0   57.0   54.1  30.124  0.00  0.00     0     0.00      0     0.0  0.00   0.0   0.056   0.000   74.1    54   56.4   74.2   9.87  .0737    0.000   205    7    100.0   10 
 7/06/20  2:40a   57.2   57.2   57.0    86   53.0   1.0   ENE   0.17   4.0   ENE   57.2   57.1   57.1   54.2  30.122  0.00  0.00     0     0.00      0     0.0  0.00   0.0   0.054   0.000   74.1    54   56.4   74.2   9.87  .0737    0.000   204    7    100.0   10 
 7/06/20  2:50a   57.3   57.3   57.1    86   53.1   0.0   ENE   0.00   3.0   ENE   57.3   57.2   57.2   54.3  30.124  0.00  0.00     0     0.00      0     0.0  0.00   0.0   0.053   0.000   74.0    54   56.3   74.1   9.87  .0737    0.000   204    7    100.0   10 
 7/06/20  3:00a   57.4   57.4   57.3    86   53.2   1.0   ENE   0.17   2.0   ENE   57.4   57.3   57.3   54.4  30.122  0.00  0.00     0     0.00      0     0.0  0.00   0.0   0.053   0.000   74.0    54   56.3   74.1   9.87  .0737    0.000   202    7    100.0   10 
 7/06/20  3:10a   57.5   57.5   57.4    86   53.3   0.0   ENE   0.00   2.0   ENE   57.5   57.4   57.4   54.5  30.122  0.00  0.00     0     0.00      0     0.0  0.00   0.0   0.052   0.000   74.0    54   56.3   74.1   9.87  .0737    0.000   203    7    100.0   10 
 7/06/20  3:20a   57.5   57.6   57.5    86   53.3   0.0   ENE   0.00   2.0   ENE   57.5   57.4   57.4   54.5  30.120  0.00  0.00     0     0.00      0     0.0  0.00   0.0   0.052   0.000   73.9    54   56.2   74.0   9.87  .0737    0.000   203    7    100.0   10 
 7/06/20  3:30a   57.4   57.5   57.3    86   53.2   0.0   ENE   0.00   1.0   ENE   57.4   57.3   57.3   54.4  30.121  0.00  0.00     0     0.00      0     0.0  0.00   0.0   0.053   0.000   73.9    54   56.2   74.0   9.87  .0737    0.000   203    7    100.0   10 
 7/06/20  3:40a   57.3   57.4   57.2    86   53.1   0.0   ENE   0.00   1.0   ENE   57.3   57.2   57.2   54.3  30.118  0.00  0.00     0     0.00      0     0.0  0.00   0.0   0.053   0.000   73.8    54   56.1   73.9   9.87  .0738    0.000   203    7    100.0   10 
 7/06/20  3:50a   57.2   57.3   57.1    86   53.0   0.0   ENE   0.00   2.0   ENE   57.2   57.1   57.1   54.2  30.117  0.00  0.00     0     0.00      0     0.0  0.00   0.0   0.054   0.000   73.8    54   56.1   73.9   9.87  .0738    0.000   205    7    100.0   10 
 7/06/20  4:00a   57.1   57.2   57.0    86   53.0   0.0   ENE   0.00   2.0   ENE   57.1   57.0   57.0   54.0  30.118  0.00  0.00     0     0.00      0     0.0  0.00   0.0   0.055   0.000   73.8    54   56.1   73.9   9.87  .0738    0.000   202    7    100.0   10 
 7/06/20  4:10a   57.1   57.1   57.0    87   53.3   1.0   ENE   0.17   3.0   ENE   57.1   57.1   57.1   54.2  30.118  0.00  0.00     0     0.00      0     0.0  0.00   0.0   0.055   0.000   73.7    54   56.0   73.7   9.88  .0738    0.000   203    7    100.0   10 
 7/06/20  4:20a   57.1   57.1   57.0    88   53.6   0.0   ENE   0.00   2.0   ENE   57.1   57.1   57.1   54.2  30.114  0.00  0.00     0     0.00      0     0.0  0.00   0.0   0.055   0.000   73.7    54   56.0   73.7   9.88  .0738    0.000   201    7    100.0   10 
 7/06/20  4:30a   57.2   57.2   57.1    87   53.4   1.0     E   0.17   3.0   ENE   57.2   57.2   57.2   54.3  30.112  0.00  0.00     0     0.00      0     0.0  0.00   0.0   0.054   0.000   73.6    54   55.9   73.6   9.88  .0738    0.000   203    7    100.0   10 
 7/06/20  4:40a   57.2   57.2   57.1    86   53.0   1.0     E   0.17   2.0     E   57.2   57.1   57.1   54.2  30.111  0.00  0.00     0     0.00      0     0.0  0.00   0.0   0.054   0.000   73.6    54   55.9   73.6   9.88  .0738    0.000   203    7    100.0   10 
 7/06/20  4:50a   56.8   57.2   56.8    86   52.7   2.0     E   0.33   4.0     S   56.8   56.7   56.7   53.7  30.112  0.00  0.00     0     0.00      0     0.0  0.00   0.0   0.057   0.000   73.6    54   55.9   73.6   9.88  .0738    0.000   203    7    100.0   10 
 7/06/20  5:00a   56.8   56.9   56.8    87   53.0   1.0     S   0.17   2.0     S   56.8   56.8   56.8   53.8  30.112  0.00  0.00     0     0.00      0     0.0  0.00   0.0   0.057   0.000   73.5    54   55.8   73.5   9.88  .0738    0.000   202    7    100.0   10 
 7/06/20  5:10a   56.8   56.8   56.7    86   52.7   0.0    SE   0.00   1.0    SE   56.8   56.7   56.7   53.7  30.109  0.00  0.00     0     0.00      0     0.0  0.00   0.0   0.057   0.000   73.5    54   55.8   73.5   9.88  .0738    0.000   201    7    100.0   10 
 7/06/20  5:20a   56.7   56.8   56.7    86   52.6   0.0    SE   0.00   2.0    SE   56.7   56.6   56.6   53.6  30.108  0.00  0.00     0     0.00      0     0.0  0.00   0.0   0.058   0.000   73.5    54   55.8   73.5   9.88  .0738    0.000   202    7    100.0   10 
 7/06/20  5:30a   56.4   56.7   56.3    87   52.6   0.0    SE   0.00   1.0    SE   56.4   56.4   56.4   53.4  30.111  0.00  0.00     0     0.00      0     0.0  0.00   0.0   0.060   0.000   73.4    54   55.7   73.4   9.88  .0738    0.000   203    7    100.0   10 
 7/06/20  5:40a   56.3   56.4   56.3    87   52.5   0.0    SE   0.00   2.0    SE   56.3   56.3   56.3   53.3  30.110  0.00  0.00     0     0.00      0     0.0  0.00   0.0   0.060   0.000   73.4    54   55.7   73.4   9.88  .0738    0.000   203    7    100.0   10 
 7/06/20  5:50a   56.0   56.3   56.0    88   52.5   1.0   SSE   0.17   3.0   SSE   56.0   56.0   56.0   53.1  30.110  0.00  0.00     3     0.04      7     0.0  0.00   0.0   0.063   0.000   73.4    54   55.7   73.4   9.88  .0738    0.000   204    7    100.0   10 
 7/06/20  6:00a   56.0   56.0   55.9    88   52.5   0.0    SE   0.00   2.0   SSE   56.0   56.0   56.0   53.3  30.110  0.00  0.00    10     0.14     12     0.0  0.00   0.0   0.063   0.000   73.4    54   55.7   73.4   9.88  .0738    0.000   202    7    100.0   10 
 7/06/20  6:10a   56.1   56.1   56.0    88   52.6   0.0    SE   0.00   1.0    SE   56.1   56.1   56.1   53.5  30.113  0.00  0.00    15     0.22     16     0.0  0.00   0.0   0.062   0.000   73.3    54   55.6   73.3   9.88  .0738    0.000   201    7    100.0   10 
 7/06/20  6:20a   56.1   56.2   56.0    88   52.6   0.0    SE   0.00   1.0    SE   56.1   56.1   56.1   53.6  30.118  0.00  0.00    20     0.29     21     0.0  0.00   0.0   0.062   0.000   73.3    54   55.6   73.3   9.88  .0738    0.000   205    7    100.0   10 
 7/06/20  6:30a   56.0   56.1   55.9    88   52.5   1.0    SE   0.17   4.0   SSE   56.0   56.0   56.0   53.6  30.120  0.00  0.00    27     0.39     32     0.0  0.00   0.0   0.063   0.000   73.3    54   55.6   73.3   9.88  .0738    0.000   204    7    100.0   10 
 7/06/20  6:40a   55.9   56.0   55.8    89   52.7   0.0   SSE   0.00   4.0   SSE   55.9   56.0   56.0   53.8  30.121  0.00  0.00    36     0.52     40     0.0  0.00   0.0   0.063   0.000   73.3    54   55.6   73.3   9.88  .0738    0.000   203    7    100.0   10 
 7/06/20  6:50a   56.1   56.1   55.9    89   52.9   0.0   ---   0.00   0.0   ---   56.1   56.2   56.2   56.6  30.119  0.00  0.00    48     0.69     54     0.0  0.00   0.0   0.062   0.000   73.3    54   55.6   73.3   9.88  .0738    0.000   204    7    100.0   10 
 7/06/20  7:00a   56.2   56.2   56.1    89   53.0   0.0   SSE   0.00   2.0   SSE   56.2   56.3   56.3   57.5  30.120  0.00  0.00    67     0.96     74     0.0  0.00   0.0   0.061   0.000   73.3    54   55.6   73.3   9.88  .0738    0.001   204    7    100.0   10 
 7/06/20  7:10a   56.0   56.1   55.9    89   52.8   1.0   SSE   0.17   1.0   SSE   56.0   56.1   56.1   57.5  30.120  0.00  0.00    74     1.06     76     0.0  0.00   0.0   0.063   0.000   73.3    54   55.6   73.3   9.88  .0738    0.000   204    7    100.0   10 
 7/06/20  7:20a   56.2   56.2   56.0    90   53.3   0.0   SSE   0.00   2.0   SSE   56.2   56.3   56.3   58.1  30.119  0.00  0.00    85     1.22     95     0.0  0.00   0.0   0.061   0.000   73.3    54   55.6   73.3   9.88  .0738    0.000   202    7    100.0   10 
 7/06/20  7:30a   55.8   56.2   55.8    89   52.6   1.0   SSE   0.17   2.0   SSE   55.8   55.9   55.9   58.1  30.120  0.00  0.00    96     1.38     98     0.0  0.00   0.0   0.064   0.000   73.3    54   55.6   73.3   9.88  .0738    0.000   203    7    100.0   10 
 7/06/20  7:40a   56.1   56.1   55.8    89   52.9   0.0   SSE   0.00   4.0   SSE   56.1   56.2   56.2   58.3  30.119  0.00  0.00    98     1.40    102     0.0  0.00   0.0   0.062   0.000   73.3    54   55.6   73.3   9.88  .0738    0.000   204    7    100.0   10 
 7/06/20  7:50a   56.8   56.8   56.1    90   53.9   3.0    NE   0.50   6.0   ENE   56.8   56.9   56.9   58.6  30.120  0.00  0.00    89     1.28     95     0.0  0.00   0.0   0.057   0.000   73.3    54   55.6   73.3   9.88  .0738    0.000   202    7    100.0   10 
 7/06/20  8:00a   57.1   57.1   56.7    91   54.5   2.0   ENE   0.33   3.0    NE   57.1   57.2   57.2   59.6  30.120  0.00  0.00   109     1.56    125     0.3  0.02   0.5   0.055   0.000   73.4    54   55.7   73.4   9.88  .0738    0.002   202    7    100.0   10 
 7/06/20  8:10a   57.5   57.5   57.0    92   55.2   1.0   ENE   0.17   4.0   ENE   57.5   57.7   57.7   61.0  30.119  0.00  0.00   140     2.01    162     0.7  0.05   0.7   0.052   0.000   73.4    54   55.7   73.4   9.88  .0738    0.000   202    7    100.0   10 
 7/06/20  8:20a   57.8   57.8   57.5    91   55.2   2.0   ENE   0.33   5.0   ENE   57.8   57.9   57.9   62.0  30.117  0.00  0.00   168     2.41    179     0.9  0.06   1.0   0.050   0.000   73.4    54   55.7   73.4   9.88  .0738    0.000   203    7    100.0   10 
 7/06/20  8:30a   58.1   58.1   57.8    91   55.5   2.0   ENE   0.33   4.0   ENE   58.1   58.2   58.2   63.4  30.117  0.00  0.00   208     2.98    348     1.2  0.09   1.4   0.048   0.000   73.5    54   55.8   73.5   9.88  .0738    0.000   204    7    100.0   10 
 7/06/20  8:40a   58.2   58.4   58.1    89   55.0   3.0    NE   0.50   4.0   ENE   58.2   58.3   58.3   66.0  30.116  0.00  0.00   310     4.44    373     1.2  0.09   1.3   0.047   0.000   73.6    54   55.9   73.6   9.88  .0738    0.000   204    7    100.0   10 
 7/06/20  8:50a   57.5   58.2   57.5    89   54.3   2.0   NNE   0.33   4.0   NNE   57.5   57.6   57.6   63.1  30.119  0.00  0.00   233     3.34    253     1.2  0.09   1.3   0.052   0.000   73.6    54   55.9   73.6   9.88  .0738    0.000   204    7    100.0   10 
 7/06/20  9:00a   56.8   57.5   56.8    90   53.9   2.0     N   0.33   3.0   NNE   56.8   56.9   56.9   63.7  30.117  0.00  0.00   294     4.21    336     1.5  0.11   1.7   0.057   0.000   73.6    54   55.9   73.6   9.88  .0738    0.005   204    7    100.0   10 
 7/06/20  9:10a   56.9   57.1   56.8    91   54.3   3.0    SW   0.50   4.0     W   56.9   57.0   57.0   67.3  30.118  0.00  0.00   502     7.20    643     2.1  0.15   2.3   0.056   0.000   73.7    54   56.0   73.7   9.88  .0738    0.000   202    7    100.0   10 
 7/06/20  9:20a   56.6   56.9   56.6    91   54.0   3.0    SW   0.50   4.0    SW   56.6   56.7   56.7   66.7  30.121  0.00  0.00   485     6.95    548     2.4  0.17   2.7   0.058   0.000   73.8    54   56.1   73.9   9.87  .0738    0.000   203    7    100.0   10 
 7/06/20  9:30a   56.9   57.1   56.7    91   54.3   2.0   SSW   0.33   4.0     S   56.9   57.0   57.0   67.6  30.121  0.00  0.00   551     7.90    708     3.0  0.21   3.3   0.056   0.000   73.9    54   56.2   74.0   9.87  .0737    0.000   204    7    100.0   10 
 7/06/20  9:40a   57.1   57.2   56.9    91   54.5   2.0   SSW   0.33   4.0   WSW   57.1   57.2   57.2   67.7  30.121  0.00  0.00   553     7.93    626     3.2  0.23   3.6   0.055   0.000   74.0    54   56.3   74.1   9.87  .0737    0.000   204    7    100.0   10 
 7/06/20  9:50a   56.8   57.3   56.8    92   54.5   4.0     W   0.67   6.0     W   56.8   56.9   56.9   66.0  30.123  0.00  0.00   457     6.55    571     2.7  0.19   3.0   0.057   0.000   74.1    54   56.4   74.2   9.87  .0737    0.000   203    7    100.0   10 
 7/06/20 10:00a   56.6   56.8   56.6    93   54.6   4.0   WSW   0.67   7.0     W   56.5   56.8   56.7   64.6  30.122  0.00  0.00   399     5.72    413     2.8  0.20   2.9   0.058   0.000   74.2    54   56.5   74.4   9.87  .0737    0.010   202    7    100.0   10 
 7/06/20 10:10a   56.4   56.7   56.4    93   54.4   4.0   WSW   0.67   7.0     W   56.3   56.6   56.5   63.9  30.122  0.00  0.00   381     5.46    406     3.0  0.21   3.1   0.060   0.000   74.3    54   56.6   74.5   9.86  .0737    0.000   205    7    100.0   10 
 7/06/20 10:20a   56.2   56.5   56.2    93   54.2   3.0    SW   0.50   5.0   WSW   56.2   56.4   56.4   66.0  30.124  0.00  0.00   518     7.43    621     3.8  0.27   4.1   0.061   0.000   74.4    54   56.7   74.6   9.86  .0737    0.000   204    7    100.0   10 
 7/06/20 10:30a   56.2   56.2   56.0    93   54.2   3.0    SW   0.50   4.0    SW   56.2   56.4   56.4   65.4  30.123  0.00  0.00   489     7.01    524     3.9  0.28   4.5   0.061   0.000   74.4    54   56.7   74.6   9.86  .0737    0.000   203    7    100.0   10 
 7/06/20 10:40a   56.6   56.6   56.3    93   54.6   3.0   SSW   0.50   4.0    SW   56.6   56.8   56.8   67.8  30.123  0.00  0.00   715    10.25    796     5.1  0.36   5.5   0.058   0.000   74.5    54   56.8   74.8   9.86  .0736    0.000   202    7    100.0   10 
 7/06/20 10:50a   56.8   56.8   56.4    93   54.8   3.0   SSW   0.50   5.0   WSW   56.8   57.0   57.0   68.3  30.124  0.00  0.00   865    12.40    970     5.7  0.41   6.5   0.057   0.000   74.6    54   56.9   74.9   9.86  .0736    0.000   204    7    100.0   10 
 7/06/20 11:00a   57.1   57.1   56.7    93   55.1   4.0   WSW   0.67   7.0   WSW   57.1   57.3   57.3   67.9  30.123  0.00  0.00   630     9.03    954     5.9  0.42   6.9   0.055   0.000   74.7    54   56.9   75.0   9.86  .0736    0.012   202    7    100.0   10 
 7/06/20 11:10a   57.1   57.2   56.9    92   54.8   4.0    SW   0.67   6.0   WSW   57.1   57.2   57.2   68.7  30.123  0.00  0.00   925    13.26    925     6.7  0.48   7.3   0.055   0.000   74.8    54   57.0   75.2   9.85  .0736    0.000   202    7    100.0   10 
 7/06/20 11:20a   57.0   57.1   56.9    92   54.7   5.0    SW   0.83   6.0    SW   56.4   57.1   56.5   67.6  30.124  0.00  0.00   740    10.61    881     6.4  0.46   7.0   0.056   0.000   74.9    54   57.1   75.3   9.85  .0736    0.000   203    7    100.0   10 
 7/06/20 11:30a   57.2   57.2   57.0    92   54.9   5.0    SW   0.83   7.0   WSW   56.6   57.3   56.7   66.9  30.127  0.00  0.00   881    12.63    949     7.3  0.52   8.3   0.054   0.000   75.0    54   57.2   75.4   9.85  .0736    0.000   204    7    100.0   10 
 7/06/20 11:40a   57.3   57.3   57.0    92   55.0   6.0    SW   1.00   9.0   SSE   56.4   57.5   56.6   68.0  30.124  0.00  0.00   980    14.05   1027     8.1  0.58   8.4   0.053   0.000   75.1    54   57.3   75.5   9.85  .0735    0.000   204    7    100.0   10 
 7/06/20 11:50a   57.5   57.6   57.3    92   55.2   7.0    SW   1.17  11.0   WSW   56.2   57.7   56.4   67.8  30.121  0.00  0.00  1020    14.62   1120     8.3  0.59   8.7   0.052   0.000   75.2    54   57.4   75.6   9.85  .0735    0.000   203    7    100.0   10 
 7/06/20 12:00p   57.0   57.5   56.9    91   54.4   6.0    SW   1.00  10.0   WSW   56.0   57.1   56.1   67.4  30.123  0.00  0.00   786    11.27   1016     7.1  0.51   8.4   0.056   0.000   75.3    54   57.5   75.7   9.84  .0735    0.018   201    7    100.0   10 
 7/06/20 12:10p   57.1   57.1   56.9    92   54.8   6.0   WSW   1.00   8.0   WSW   56.1   57.2   56.2   66.9  30.126  0.00  0.00   661     9.48   1020     6.8  0.49   8.7   0.055   0.000   75.4    54   57.6   75.7   9.84  .0735    0.000   204    7    100.0   10 
 7/06/20 12:20p   57.0   57.2   57.0    92   54.7   6.0     W   1.00   7.0   WSW   56.0   57.1   56.1   66.5  30.126  0.00  0.00   629     9.02    726     6.5  0.46   7.1   0.056   0.000   75.5    54   57.7   75.8   9.84  .0735    0.000   202    7    100.0   10 
 7/06/20 12:30p   57.7   57.7   57.0    91   55.1   6.0   WNW   1.00   8.0     W   56.8   57.8   56.9   67.9  30.127  0.00  0.00   694     9.95    844     6.5  0.46   7.2   0.051   0.000   75.6    54   57.8   75.9   9.84  .0735    0.000   201    7    100.0   10 
 7/06/20 12:40p   57.6   57.8   57.5    91   55.0   5.0     W   0.83   7.0     W   57.1   57.7   57.2   67.0  30.126  0.00  0.00   581     8.33    645     5.9  0.42   6.4   0.051   0.000   75.7    54   57.9   76.0   9.84  .0734    0.000   204    7    100.0   10 
 7/06/20 12:50p   57.4   57.6   57.3    91   54.8   5.0     W   0.83   7.0     W   56.9   57.5   57.0   68.1  30.125  0.00  0.00   707    10.13    874     7.1  0.51   8.1   0.053   0.000   75.7    54   57.9   76.0   9.84  .0734    0.000   204    7    100.0   10 
 7/06/20  1:00p   57.6   57.7   57.3    89   54.4   5.0     W   0.83   7.0     W   57.1   57.7   57.2   66.8  30.124  0.00  0.00   951    13.63   1060     8.5  0.61   9.3   0.051   0.000   75.8    54   58.0   76.1   9.83  .0734    0.015   204    7    100.0   10 
 7/06/20  1:10p   58.4   58.4   57.7    89   55.2   4.0     W   0.67   6.0     W   58.4   58.5   58.5   70.0  30.127  0.00  0.00   808    11.58    974     7.9  0.56   8.8   0.046   0.000   75.9    54   58.1   76.2   9.83  .0734    0.000   204    7    100.0   10 
 7/06/20  1:20p   58.4   58.7   58.4    86   54.2   3.0    SW   0.50   4.0   WSW   58.4   58.4   58.4   69.7  30.124  0.00  0.00   749    10.74    810     7.8  0.56   8.8   0.046   0.000   75.9    53   57.5   76.1   9.65  .0734    0.000   205    7    100.0   10 
 7/06/20  1:30p   58.9   59.0   58.4    86   54.7   3.0   WSW   0.50   4.0    SW   58.9   58.9   58.9   70.3  30.124  0.00  0.00   778    11.15    891     8.0  0.57   8.8   0.042   0.000   76.0    53   57.6   76.2   9.65  .0734    0.000   204    7    100.0   10 
 7/06/20  1:40p   60.0   60.1   58.9    83   54.8   3.0   WNW   0.50   6.0     W   60.0   60.0   60.0   71.6  30.122  0.00  0.00  1097    15.73   1383     9.3  0.66  10.0   0.035   0.000   76.1    53   57.7   76.3   9.65  .0734    0.000   201    7    100.0   10 
 7/06/20  1:50p   59.7   60.4   59.7    83   54.5   3.0   WNW   0.50   5.0   WNW   59.7   59.7   59.7   70.3  30.123  0.00  0.00   648     9.29    911     6.7  0.48   8.1   0.037   0.000   76.2    53   57.8   76.4   9.65  .0734    0.000   203    7    100.0   10 
 7/06/20  2:00p   60.0   60.2   59.7    82   54.5   3.0    NW   0.50   5.0    NW   60.0   60.0   60.0   70.4  30.121  0.00  0.00   632     9.06    680     6.1  0.44   6.5   0.035   0.000   76.3    53   57.9   76.5   9.65  .0733    0.017   202    7    100.0   10 
 7/06/20  2:10p   60.3   60.3   59.8    83   55.1   3.0    NW   0.50   5.0    NW   60.3   60.3   60.3   71.0  30.122  0.00  0.00   661     9.48    752     6.4  0.46   6.9   0.033   0.000   76.4    53   58.0   76.5   9.65  .0733    0.000   201    7    100.0   10 
 7/06/20  2:20p   60.9   61.0   60.3    81   55.0   2.0    NW   0.33   4.0    NW   60.9   60.9   60.9   72.3  30.120  0.00  0.00   786    11.27    979     7.0  0.50   7.7   0.028   0.000   76.5    53   58.1   76.6   9.65  .0733    0.000   203    7    100.0   10 
 7/06/20  2:30p   60.2   60.9   60.2    82   54.7   3.0    NW   0.50   4.0    NW   60.2   60.2   60.2   70.6  30.123  0.00  0.00   633     9.07    758     5.8  0.41   6.4   0.033   0.000   76.5    53   58.1   76.6   9.65  .0733    0.000   203    7    100.0   10 
 7/06/20  2:40p   59.5   60.2   59.5    83   54.3   4.0   WNW   0.67   5.0    NW   59.5   59.5   59.5   68.3  30.125  0.00  0.00   504     7.22    573     4.7  0.34   5.3   0.038   0.000   76.6    53   58.2   76.7   9.65  .0733    0.000   203    7    100.0   10 
 7/06/20  2:50p   59.3   59.6   59.3    84   54.5   4.0   WNW   0.67   5.0   WNW   59.3   59.3   59.3   67.1  30.126  0.00  0.00   439     6.29    450     4.0  0.29   4.1   0.040   0.000   76.7    53   58.3   76.8   9.65  .0733    0.000   204    7    100.0   10 
 7/06/20  3:00p   59.6   59.6   59.2    84   54.8   3.0   WNW   0.50   6.0     W   59.6   59.6   59.6   68.7  30.127  0.00  0.00   521     7.47    568     4.7  0.34   5.0   0.038   0.000   76.8    53   58.4   76.9   9.65  .0733    0.013   200    7    100.0   10 
 7/06/20  3:10p   59.6   59.6   59.4    85   55.1   4.0     W   0.67   9.0     N   59.6   59.7   59.7   65.6  30.129  0.00  0.00   329     4.72    554     2.9  0.21   4.8   0.038   0.000   76.8    53   58.4   76.9   9.65  .0733    0.000   204    7    100.0   10 
 7/06/20  3:20p   59.2   59.7   59.2    84   54.4   5.0   NNW   0.83   9.0   NNE   59.0   59.2   59.0   61.0  30.126  0.00  0.00   160     2.29    211     1.4  0.10   1.8   0.040   0.000   76.7    53   58.3   76.8   9.65  .0733    0.000   205    7    100.0   10 
 7/06/20  3:30p   59.2   59.3   59.0    84   54.4   4.0     N   0.67   8.0   NNE   59.2   59.2   59.2   63.5  30.128  0.00  0.00   255     3.66    274     2.2  0.16   2.4   0.040   0.000   76.6    52   57.7   76.6   9.52  .0733    0.000   203    7    100.0   10 
 7/06/20  3:40p   59.6   59.6   59.2    83   54.4   3.0   NNW   0.50   5.0   NNW   59.6   59.6   59.6   64.7  30.130  0.00  0.00   289     4.14    311     2.5  0.18   2.6   0.038   0.000   76.7    52   57.7   76.7   9.52  .0733    0.000   204    7    100.0   10 
 7/06/20  3:50p   59.3   59.6   59.3    83   54.1   3.0   NNW   0.50   5.0    NW   59.3   59.2   59.2   64.4  30.130  0.00  0.00   288     4.13    299     2.4  0.17   2.5   0.040   0.000   76.7    52   57.7   76.7   9.52  .0733    0.000   203    7    100.0   10 
 7/06/20  4:00p   59.0   59.3   59.0    84   54.2   3.0   WNW   0.50   4.0   WNW   59.0   59.0   59.0   65.0  30.133  0.00  0.00   322     4.62    360     2.5  0.18   2.8   0.042   0.000   76.7    52   57.7   76.7   9.52  .0733    0.006   205    7    100.0   10 
 7/06/20  4:10p   58.7   59.2   58.7    84   53.9   2.0   WNW   0.33   4.0   WNW   58.7   58.6   58.6   64.0  30.133  0.00  0.00   293     4.20    350     2.3  0.16   2.7   0.044   0.000   76.7    52   57.7   76.7   9.52  .0733    0.000   203    7    100.0   10 
 7/06/20  4:20p   58.8   58.8   58.6    84   54.0   2.0     W   0.33   3.0     W   58.8   58.7   58.7   64.2  30.130  0.00  0.00   295     4.23    385     2.1  0.15   2.5   0.043   0.000   76.7    52   57.7   76.7   9.52  .0733    0.000   204    7    100.0   10 
 7/06/20  4:30p   59.0   59.0   58.8    85   54.5   3.0     S   0.50   4.0     S   59.0   59.0   59.0   66.9  30.128  0.00  0.00   403     5.78    431     2.7  0.19   2.8   0.042   0.000   76.8    52   57.8   76.8   9.51  .0733    0.000   200    7    100.0   10 
 7/06/20  4:40p   58.9   58.9   58.8    86   54.7   3.0     S   0.50   4.0     S   58.9   58.9   58.9   65.9  30.126  0.00  0.00   349     5.00    376     2.4  0.17   2.6   0.042   0.000   76.8    52   57.8   76.8   9.51  .0733    0.000   204    7    100.0   10 
 7/06/20  4:50p   59.1   59.2   58.8    84   54.3   3.0     S   0.50   5.0   SSE   59.1   59.1   59.1   67.1  30.125  0.00  0.00   392     5.62    408     2.5  0.18   2.6   0.041   0.000   76.9    52   57.9   76.9   9.51  .0733    0.000   204    7    100.0   10 
 7/06/20  5:00p   59.4   59.4   59.1    84   54.6   3.0     S   0.50   4.0     S   59.4   59.4   59.4   68.2  30.125  0.00  0.00   426     6.11    496     2.5  0.18   2.8   0.039   0.000   76.9    52   57.9   76.9   9.51  .0733    0.008   203    7    100.0   10 
 7/06/20  5:10p   59.4   59.5   59.4    84   54.6   3.0     S   0.50   4.0     S   59.4   59.4   59.4   66.9  30.124  0.00  0.00   350     5.02    385     2.2  0.16   2.3   0.039   0.000   77.0    52   58.0   77.0   9.51  .0732    0.000   205    7    100.0   10 
 7/06/20  5:20p   59.4   59.5   59.4    83   54.2   2.0     S   0.33   4.0     S   59.4   59.4   59.4   66.4  30.123  0.00  0.00   320     4.59    327     1.9  0.14   2.0   0.039   0.000   77.0    52   58.0   77.0   9.51  .0732    0.000   201    7    100.0   10 
 7/06/20  5:30p   59.4   59.5   59.4    82   53.9   2.0     S   0.33   4.0     S   59.4   59.3   59.3   66.0  30.123  0.00  0.00   297     4.26    309     1.6  0.11   1.8   0.039   0.000   77.0    52   58.0   77.0   9.51  .0732    0.000   201    7    100.0   10 
 7/06/20  5:40p   59.4   59.5   59.3    81   53.6   2.0     S   0.33   3.0     S   59.4   59.3   59.3   64.5  30.122  0.00  0.00   231     3.31    283     1.4  0.10   1.5   0.039   0.000   77.1    53   58.6   77.2   9.65  .0732    0.000   203    7    100.0   10 
 7/06/20  5:50p   59.1   59.4   59.1    81   53.3   2.0     S   0.33   3.0     S   59.1   58.9   58.9   61.9  30.124  0.00  0.00   149     2.14    163     0.8  0.06   1.0   0.041   0.000   77.0    53   58.6   77.1   9.65  .0732    0.000   203    7    100.0   10 
 7/06/20  6:00p   59.0   59.1   58.9    82   53.5   2.0     S   0.33   3.0     S   59.0   58.9   58.9   62.2  30.123  0.00  0.00   155     2.22    193     0.7  0.05   0.8   0.042   0.000   77.0    53   58.6   77.1   9.65  .0732    0.005   204    7    100.0   10 
 7/06/20  6:10p   59.3   59.3   58.9    82   53.8   2.0     S   0.33   4.0     S   59.3   59.2   59.2   64.6  30.124  0.00  0.00   215     3.08    225     0.9  0.06   0.9   0.040   0.000   77.0    53   58.6   77.1   9.65  .0732    0.000   204    7    100.0   10 
 7/06/20  6:20p   60.2   60.2   59.4    82   54.7   2.0    NE   0.33   4.0   ENE   60.2   60.2   60.2   66.0  30.123  0.00  0.00   221     3.17    236     0.9  0.06   0.9   0.033   0.000   77.0    53   58.6   77.1   9.65  .0732    0.000   200    7    100.0   10 
 7/06/20  6:30p   60.4   60.5   60.1    81   54.5   2.0    NE   0.33   4.0    NE   60.4   60.4   60.4   65.3  30.123  0.00  0.00   190     2.72    211     0.7  0.05   0.8   0.032   0.000   77.0    53   58.6   77.1   9.65  .0732    0.000   204    7    100.0   10 
 7/06/20  6:40p   60.2   60.5   60.2    81   54.3   2.0    NE   0.33   3.0    NE   60.2   60.2   60.2   63.9  30.124  0.00  0.00   146     2.09    174     0.6  0.04   0.6   0.033   0.000   76.9    53   58.5   77.0   9.65  .0732    0.000   202    7    100.0   10 
 7/06/20  6:50p   59.8   60.2   59.7    83   54.6   2.0    NE   0.33   3.0    NE   59.8   59.8   59.8   63.4  30.121  0.00  0.00   138     1.98    139     0.5  0.04   0.5   0.036   0.000   76.9    53   58.5   77.0   9.65  .0732    0.000   202    7    100.0   10 
 7/06/20  7:00p   59.8   59.9   59.8    82   54.3   1.0    NE   0.17   3.0    NE   59.8   59.8   59.8   63.4  30.117  0.00  0.00   136     1.95    137     0.2  0.01   0.5   0.036   0.000   76.8    51   57.3   76.7   9.35  .0733    0.004   203    7    100.0   10 
 7/06/20  7:10p   59.5   59.9   59.5    83   54.3   2.0    NE   0.33   3.0    NE   59.5   59.5   59.5   62.4  30.118  0.00  0.00   113     1.62    130     0.0  0.00   0.0   0.038   0.000   76.4    51   56.9   76.4   9.35  .0734    0.000   202    7    100.0   10 
 7/06/20  7:20p   59.1   59.5   59.1    83   53.9   2.0    NE   0.33   3.0    NE   59.1   59.0   59.0   60.2  30.118  0.00  0.00    70     1.00     88     0.0  0.00   0.0   0.041   0.000   76.0    51   56.6   76.1   9.35  .0734    0.000   202    7    100.0   10 
 7/06/20  7:30p   58.7   59.2   58.7    83   53.5   1.0    NE   0.17   2.0    NE   58.7   58.6   58.6   58.9  30.120  0.00  0.00    47     0.67     54     0.0  0.00   0.0   0.044   0.000   75.7    51   56.3   75.8   9.35  .0735    0.000   202    7    100.0   10 
 7/06/20  7:40p   58.9   58.9   58.8    84   54.1   1.0    NE   0.17   2.0    NE   58.9   58.9   58.9   58.8  30.119  0.00  0.00    36     0.52     39     0.0  0.00   0.0   0.042   0.000   75.4    52   56.5   75.6   9.54  .0735    0.000   205    7    100.0   10 
 7/06/20  7:50p   59.1   59.1   58.9    84   54.3   1.0    NE   0.17   3.0    NE   59.1   59.1   59.1   59.0  30.122  0.00  0.00    36     0.52     37     0.0  0.00   0.0   0.041   0.000   75.4    53   57.1   75.7   9.65  .0735    0.000   201    7    100.0   10 
 7/06/20  8:00p   59.1   59.2   59.0    84   54.3   1.0    NE   0.17   2.0    NE   59.1   59.1   59.1   57.4  30.121  0.00  0.00    30     0.43     33     0.0  0.00   0.0   0.041   0.000   75.6    53   57.3   75.8   9.65  .0735    0.001   202    7    100.0   10 
 7/06/20  8:10p   58.9   59.1   58.8    84   54.1   1.0    NE   0.17   2.0    NE   58.9   58.9   58.9   57.1  30.120  0.00  0.00    24     0.34     25     0.0  0.00   0.0   0.042   0.000   75.7    53   57.4   75.9   9.65  .0734    0.000   203    7    100.0   10 
 7/06/20  8:20p   58.7   58.9   58.6    84   53.9   1.0    NE   0.17   1.0    NE   58.7   58.6   58.6   56.7  30.121  0.00  0.00    21     0.30     23     0.0  0.00   0.0   0.044   0.000   75.7    53   57.4   75.9   9.65  .0734    0.000   205    7    100.0   10 
 7/06/20  8:30p   58.6   58.7   58.6    84   53.8   0.0    NE   0.00   2.0    NE   58.6   58.5   58.5   56.5  30.117  0.00  0.00    17     0.24     19     0.0  0.00   0.0   0.044   0.000   75.7    53   57.4   75.9   9.65  .0734    0.000   203    7    100.0   10 
 7/06/20  8:40p   58.5   58.6   58.5    83   53.4   1.0    NE   0.17   2.0    NE   58.5   58.4   58.4   56.3  30.117  0.00  0.00    13     0.19     14     0.0  0.00   0.0   0.045   0.000   75.7    53   57.4   75.9   9.65  .0734    0.000   201    7    100.0   10 
 7/06/20  8:50p   58.5   58.6   58.5    83   53.4   1.0    NE   0.17   2.0    NE   58.5   58.4   58.4   56.2  30.116  0.00  0.00     8     0.11     11     0.0  0.00   0.0   0.045   0.000   75.7    53   57.4   75.9   9.65  .0734    0.000   202    7    100.0   10 
 7/06/20  9:00p   58.5   58.6   58.5    84   53.7   1.0    NE   0.17   2.0    NE   58.5   58.4   58.4   56.0  30.116  0.00  0.00     2     0.03      5     0.0  0.00   0.0   0.045   0.000   75.7    53   57.4   75.9   9.65  .0734    0.000   204    7    100.0   10 
 7/06/20  9:10p   58.5   58.5   58.4    85   54.0   0.0    NE   0.00   2.0    NE   58.5   58.5   58.5   56.1  30.117  0.00  0.00     0     0.00      0     0.0  0.00   0.0   0.045   0.000   75.7    53   57.4   75.9   9.65  .0734    0.000   202    7    100.0   10 
 7/06/20  9:20p   58.4   58.5   58.3    85   53.9   0.0    NE   0.00   2.0    NE   58.4   58.3   58.3   55.9  30.117  0.00  0.00     0     0.00      0     0.0  0.00   0.0   0.046   0.000   75.7    53   57.4   75.9   9.65  .0734    0.000   203    7    100.0   10 
 7/06/20  9:30p   58.3   58.5   58.3    86   54.1   0.0   ---   0.00   0.0   ---   58.3   58.3   58.3   55.9  30.121  0.00  0.00     0     0.00      0     0.0  0.00   0.0   0.047   0.000   75.7    53   57.4   75.9   9.65  .0734    0.000   203    7    100.0   10 
 7/06/20  9:40p   58.3   58.4   58.3    86   54.1   0.0    NE   0.00   2.0    NE   58.3   58.3   58.3   55.9  30.120  0.00  0.00     0     0.00      0     0.0  0.00   0.0   0.047   0.000   75.6    53   57.3   75.8   9.65  .0735    0.000   205    7    100.0   10 
 7/06/20  9:50p   58.4   58.4   58.3    85   53.9   0.0    NE   0.00   1.0    NE   58.4   58.3   58.3   55.9  30.121  0.00  0.00     0     0.00      0     0.0  0.00   0.0   0.046   0.000   75.6    53   57.3   75.8   9.65  .0735    0.000   203    7    100.0   10 
 7/06/20 10:00p   58.4   58.5   58.4    84   53.6   0.0    NE   0.00   2.0    NE   58.4   58.3   58.3   55.9  30.126  0.00  0.00     0     0.00      0     0.0  0.00   0.0   0.046   0.000   75.6    53   57.3   75.8   9.65  .0735    0.000   203    7    100.0   10 
 7/06/20 10:10p   58.6   58.6   58.4    85   54.1   0.0    NE   0.00   2.0    NE   58.6   58.6   58.6   56.2  30.125  0.00  0.00     0     0.00      0     0.0  0.00   0.0   0.044   0.000   75.5    53   57.2   75.8   9.65  .0735    0.000   202    7    100.0   10 
 7/06/20 10:20p   58.6   58.6   58.5    85   54.1   1.0    NE   0.17   2.0    NE   58.6   58.6   58.6   56.2  30.126  0.00  0.00     0     0.00      0     0.0  0.00   0.0   0.044   0.000   75.5    53   57.2   75.8   9.65  .0735    0.000   202    7    100.0   10 
 7/06/20 10:30p   58.5   58.6   58.5    85   54.0   1.0    NE   0.17   3.0    NE   58.5   58.5   58.5   56.1  30.128  0.00  0.00     0     0.00      0     0.0  0.00   0.0   0.045   0.000   75.5    53   57.2   75.8   9.65  .0735    0.000   204    7    100.0   10 
 7/06/20 10:40p   58.2   58.5   58.2    86   54.0   2.0    SE   0.33   4.0   ESE   58.2   58.2   58.2   55.8  30.130  0.00  0.00     0     0.00      0     0.0  0.00   0.0   0.047   0.000   75.4    53   57.1   75.7   9.65  .0735    0.000   202    7    100.0   10 
 7/06/20 10:50p   58.1   58.2   58.0    85   53.6   1.0   SSE   0.17   2.0   SSE   58.1   58.0   58.0   55.6  30.127  0.00  0.00     0     0.00      0     0.0  0.00   0.0   0.048   0.000   75.4    53   57.1   75.7   9.65  .0735    0.000   202    7    100.0   10 
 7/06/20 11:00p   58.0   58.1   57.9    85   53.5   0.0   SSE   0.00   2.0   SSE   58.0   57.9   57.9   55.5  30.127  0.00  0.00     0     0.00      0     0.0  0.00   0.0   0.049   0.000   75.3    53   57.0   75.6   9.65  .0735    0.001   203    7    100.0   10 
 7/06/20 11:10p   58.0   58.1   58.0    85   53.5   1.0   SSE   0.17   3.0   SSE   58.0   57.9   57.9   55.5  30.128  0.00  0.00     0     0.00      0     0.0  0.00   0.0   0.049   0.000   75.3    53   57.0   75.6   9.65  .0735    0.000   203    7    100.0   10 
 7/06/20 11:20p   58.0   58.1   58.0    85   53.5   0.0   SSE   0.00   1.0   SSE   58.0   57.9   57.9   55.5  30.129  0.00  0.00     0     0.00      0     0.0  0.00   0.0   0.049   0.000   75.3    53   57.0   75.6   9.65  .0735    0.000   203    7    100.0   10 
 7/06/20 11:30p   58.1   58.1   58.0    84   53.3   0.0   SSE   0.00   2.0   SSE   58.1   58.0   58.0   55.6  30.128  0.00  0.00     0     0.00      0     0.0  0.00   0.0   0.048   0.000   75.3    53   57.0   75.6   9.65  .0735    0.000   204    7    100.0   10 
 7/06/20 11:40p   58.2   58.2   58.0    84   53.4   1.0   SSE   0.17   4.0   SSE   58.2   58.1   58.1   55.7  30.129  0.00  0.00     0     0.00      0     0.0  0.00   0.0   0.047   0.000   75.2    53   56.9   75.5   9.65  .0736    0.000   202    7    100.0   10 
 7/06/20 11:50p   58.2   58.3   58.1    84   53.4   1.0   SSE   0.17   4.0   SSE   58.2   58.1   58.1   55.7  30.129  0.00  0.00     0     0.00      0     0.0  0.00   0.0   0.047   0.000   75.2    53   56.9   75.5   9.65  .0736    0.000   203    7    100.0   10 
 7/07/20 12:00a   58.3   58.3   58.2    85   53.8   0.0   SSE   0.00   2.0   SSE   58.3   58.2   58.2   55.8  30.130  0.00  0.00     0     0.00      0     0.0  0.00   0.0   0.047   0.000   75.2    53   56.9   75.5   9.65  .0736    0.001   203    7    100.0   10 
 7/07/20 12:10a   58.2   58.3   58.1    85   53.7   1.0   SSE   0.17   4.0   SSE   58.2   58.1   58.1   55.7  30.129  0.00  0.00     0     0.00      0     0.0  0.00   0.0   0.047   0.000   75.2    53   56.9   75.5   9.65  .0736    0.000   203    7    100.0   10 
 7/07/20 12:20a   58.1   58.2   58.1    85   53.6   0.0   SSE   0.00   2.0   SSE   58.1   58.0   58.0   55.6  30.129  0.00  0.00     0     0.00      0     0.0  0.00   0.0   0.048   0.000   75.1    53   56.8   75.4   9.65  .0736    0.000   203    7    100.0   10 
 7/07/20 12:30a   58.1   58.1   58.0    85   53.6   1.0   SSE   0.17   2.0   SSE   58.1   58.0   58.0   55.6  30.130  0.00  0.00     0     0.00      0     0.0  0.00   0.0   0.048   0.000   75.1    53   56.8   75.4   9.65  .0736    0.000   202    7    100.0   10 
 7/07/20 12:40a   58.1   58.2   58.1    85   53.6   0.0   SSE   0.00   2.0   SSE   58.1   58.0   58.0   55.6  30.131  0.00  0.00     0     0.00      0     0.0  0.00   0.0   0.048   0.000   75.1    53   56.8   75.4   9.65  .0736    0.000   204    7    100.0   10 
 7/07/20 12:50a   58.1   58.2   58.1    85   53.6   0.0   SSE   0.00   2.0   SSE   58.1   58.0   58.0   55.6  30.131  0.00  0.00     0     0.00      0     0.0  0.00   0.0   0.048   0.000   75.0    53   56.7   75.3   9.65  .0736    0.000   202    7    100.0   10 
 7/07/20  1:00a   58.1   58.2   58.0    85   53.6   1.0   SSE   0.17   3.0   SSE   58.1   58.0   58.0   55.6  30.132  0.00  0.00     0     0.00      0     0.0  0.00   0.0   0.048   0.000   75.0    53   56.7   75.3   9.65  .0736    0.001   204    7    100.0   10 
 7/07/20  1:10a   58.0   58.0   57.9    85   53.5   1.0   SSE   0.17   3.0   SSE   58.0   57.9   57.9   55.5  30.132  0.00  0.00     0     0.00      0     0.0  0.00   0.0   0.049   0.000   74.9    53   56.6   75.2   9.65  .0736    0.000   202    7    100.0   10 
 7/07/20  1:20a   57.9   58.0   57.9    85   53.4   1.0   SSE   0.17   2.0   SSE   57.9   57.8   57.8   55.4  30.131  0.00  0.00     0     0.00      0     0.0  0.00   0.0   0.049   0.000   74.9    53   56.6   75.2   9.65  .0736    0.000   204    7    100.0   10 
 7/07/20  1:30a   58.0   58.0   57.9    85   53.5   0.0   SSE   0.00   2.0   SSE   58.0   57.9   57.9   55.5  30.132  0.00  0.00     0     0.00      0     0.0  0.00   0.0   0.049   0.000   74.8    53   56.5   75.1   9.66  .0736    0.000   203    7    100.0   10 
 7/07/20  1:40a   58.0   58.0   57.9    85   53.5   0.0   SSE   0.00   2.0   SSE   58.0   57.9   57.9   55.5  30.131  0.00  0.00     0     0.00      0     0.0  0.00   0.0   0.049   0.000   74.8    53   56.5   75.1   9.66  .0736    0.000   201    7    100.0   10 
 7/07/20  1:50a   58.0   58.1   58.0    85   53.5   1.0   SSE   0.17   3.0   SSE   58.0   57.9   57.9   55.5  30.131  0.00  0.00     0     0.00      0     0.0  0.00   0.0   0.049   0.000   74.8    53   56.5   75.1   9.66  .0736    0.000   201    7    100.0   10 
 7/07/20  2:00a   57.9   58.0   57.9    85   53.4   1.0    SE   0.17   4.0    SE   57.9   57.8   57.8   55.4  30.130  0.00  0.00     0     0.00      0     0.0  0.00   0.0   0.049   0.000   74.7    53   56.4   74.9   9.66  .0736    0.001   201    7    100.0   10 
 7/07/20  2:10a   57.9   58.0   57.8    85   53.4   1.0    SE   0.17   3.0    SE   57.9   57.8   57.8   55.4  30.129  0.00  0.00     0     0.00      0     0.0  0.00   0.0   0.049   0.000   74.7    53   56.4   74.9   9.66  .0736    0.000   203    7    100.0   10 
 7/07/20  2:20a   57.8   57.9   57.8    85   53.3   1.0    SE   0.17   3.0    SE   57.8   57.7   57.7   55.3  30.127  0.00  0.00     0     0.00      0     0.0  0.00   0.0   0.050   0.000   74.6    53   56.3   74.8   9.67  .0737    0.000   200    7    100.0   10 
 7/07/20  2:30a   57.7   57.8   57.7    85   53.2   1.0   SSE   0.17   5.0     S   57.7   57.6   57.6   55.2  30.125  0.00  0.00     0     0.00      0     0.0  0.00   0.0   0.051   0.000   74.6    53   56.3   74.8   9.67  .0737    0.000   204    7    100.0   10 
 7/07/20  2:40a   57.8   57.9   57.7    85   53.3   1.0   SSE   0.17   3.0    SE   57.8   57.7   57.7   55.3  30.125  0.00  0.00     0     0.00      0     0.0  0.00   0.0   0.050   0.000   74.6    53   56.3   74.8   9.67  .0737    0.000   203    7    100.0   10 
 7/07/20  2:50a   57.8   57.9   57.7    85   53.3   1.0    SE   0.17   3.0    SE   57.8   57.7   57.7   55.3  30.124  0.00  0.00     0     0.00      0     0.0  0.00   0.0   0.050   0.000   74.5    53   56.2   74.7   9.67  .0737    0.000   204    7    100.0   10 
 7/07/20  3:00a   57.8   57.8   57.8    85   53.3   1.0   ESE   0.17   4.0   ESE   57.8   57.7   57.7   55.3  30.124  0.00  0.00     0     0.00      0     0.0  0.00   0.0   0.050   0.000   74.5    53   56.2   74.7   9.67  .0737    0.001   204    7    100.0   10 
 7/07/20  3:10a   57.8   57.8   57.8    84   53.0   1.0   ESE   0.17   3.0    SE   57.8   57.7   57.7   55.2  30.122  0.00  0.00     0     0.00      0     0.0  0.00   0.0   0.050   0.000   74.4    53   56.2   74.5   9.67  .0737    0.000   203    7    100.0   10 
 7/07/20  3:20a   57.8   57.8   57.8    84   53.0   1.0    SE   0.17   4.0   ESE   57.8   57.7   57.7   55.2  30.121  0.00  0.00     0     0.00      0     0.0  0.00   0.0   0.050   0.000   74.4    53   56.2   74.5   9.67  .0737    0.000   200    7    100.0   10 
 7/07/20  3:30a   57.8   57.9   57.8    85   53.3   1.0   ESE   0.17   3.0   ESE   57.8   57.7   57.7   55.3  30.122  0.00  0.00     0     0.00      0     0.0  0.00   0.0   0.050   0.000   74.3    53   56.1   74.4   9.68  .0737    0.000   202    7    100.0   10 
 7/07/20  3:40a   57.8   57.9   57.8    85   53.3   1.0   ESE   0.17   3.0   ESE   57.8   57.7   57.7   55.3  30.122  0.00  0.00     0     0.00      0     0.0  0.00   0.0   0.050   0.000   74.3    53   56.1   74.4   9.68  .0737    0.000   201    7    100.0   10 
 7/07/20  3:50a   57.9   57.9   57.8    85   53.4   1.0   ESE   0.17   3.0   ESE   57.9   57.8   57.8   55.4  30.122  0.00  0.00     0     0.00      0     0.0  0.00   0.0   0.049   0.000   74.2    53   56.0   74.3   9.68  .0737    0.000   204    7    100.0   10 
 7/07/20  4:00a   57.9   57.9   57.8    86   53.7   1.0   ESE   0.17   3.0   ESE   57.9   57.8   57.8   55.4  30.123  0.00  0.00     0     0.00      0     0.0  0.00   0.0   0.049   0.000   74.2    53   56.0   74.3   9.68  .0737    0.001   205    7    100.0   10 
 7/07/20  4:10a   57.8   57.9   57.8    86   53.6   1.0   ESE   0.17   3.0   ESE   57.8   57.7   57.7   55.3  30.125  0.00  0.00     0     0.00      0     0.0  0.00   0.0   0.050   0.000   74.1    53   55.9   74.1   9.69  .0737    0.000   201    7    100.0   10 
 7/07/20  4:20a   57.7   57.9   57.7    87   53.9   2.0     S   0.33   5.0   SSE   57.7   57.7   57.7   55.3  30.126  0.00  0.00     0     0.00      0     0.0  0.00   0.0   0.051   0.000   74.1    53   55.9   74.1   9.69  .0737    0.000   202    7    100.0   10 
 7/07/20  4:30a   57.7   57.7   57.6    86   53.5   1.0   SSE   0.17   5.0   SSE   57.7   57.6   57.6   55.2  30.126  0.00  0.00     0     0.00      0     0.0  0.00   0.0   0.051   0.000   74.0    53   55.8   74.0   9.69  .0738    0.000   204    7    100.0   10 
 7/07/20  4:40a   57.8   57.8   57.7    86   53.6   1.0   SSE   0.17   4.0    SE   57.8   57.7   57.7   55.3  30.125  0.00  0.00     0     0.00      0     0.0  0.00   0.0   0.050   0.000   74.0    53   55.8   74.0   9.69  .0738    0.000   204    7    100.0   10 
 7/07/20  4:50a   57.8   57.8   57.7    86   53.6   1.0   SSE   0.17   5.0   SSE   57.8   57.7   57.7   55.3  30.126  0.00  0.00     0     0.00      0     0.0  0.00   0.0   0.050   0.000   73.9    53   55.7   73.9   9.69  .0738    0.000   203    7    100.0   10 
 7/07/20  5:00a   57.8   57.8   57.7    86   53.6   2.0   SSE   0.33   5.0     S   57.8   57.7   57.7   55.3  30.127  0.00  0.00     0     0.00      0     0.0  0.00   0.0   0.050   0.000   73.9    53   55.7   73.9   9.69  .0738    0.001   204    7    100.0   10 
 7/07/20  5:10a   57.8   57.8   57.7    86   53.6   1.0   SSE   0.17   4.0   SSE   57.8   57.7   57.7   55.3  30.126  0.00  0.00     0     0.00      0     0.0  0.00   0.0   0.050   0.000   73.8    53   55.6   73.8   9.70  .0738    0.000   201    7    100.0   10 
 7/07/20  5:20a   57.8   57.8   57.7    85   53.3   2.0     S   0.33   6.0   SSE   57.8   57.7   57.7   55.3  30.128  0.00  0.00     0     0.00      0     0.0  0.00   0.0   0.050   0.000   73.8    53   55.6   73.8   9.70  .0738    0.000   204    7    100.0   10 
 7/07/20  5:30a   58.0   58.0   57.8    85   53.5   2.0     S   0.33   5.0     S   58.0   57.9   57.9   55.5  30.129  0.00  0.00     0     0.00      0     0.0  0.00   0.0   0.049   0.000   73.7    53   55.5   73.6   9.70  .0738    0.000   202    7    100.0   10 
 7/07/20  5:40a   58.1   58.1   57.9    85   53.6   2.0     S   0.33   3.0     S   58.1   58.0   58.0   55.6  30.131  0.00  0.00     0     0.00      0     0.0  0.00   0.0   0.048   0.000   73.6    53   55.4   73.5   9.71  .0738    0.000   204    7    100.0   10 
 7/07/20  5:50a   57.9   58.1   57.9    85   53.4   1.0     S   0.17   4.0     S   57.9   57.8   57.8   55.4  30.132  0.00  0.00     2     0.03      5     0.0  0.00   0.0   0.049   0.000   73.6    53   55.4   73.5   9.71  .0738    0.000   204    7    100.0   10 
 7/07/20  6:00a   57.9   58.0   57.8    85   53.4   2.0     S   0.33   5.0     S   57.9   57.8   57.8   55.5  30.135  0.00  0.00     6     0.09      7     0.0  0.00   0.0   0.049   0.000   73.5    53   55.3   73.4   9.71  .0739    0.000   203    7    100.0   10 
 7/07/20  6:10a   57.8   57.8   57.7    85   53.3   4.0     S   0.67   8.0     S   57.8   57.7   57.7   55.5  30.136  0.00  0.00     9     0.13     11     0.0  0.00   0.0   0.050   0.000   73.4    53   55.2   73.3   9.71  .0739    0.000   202    7    100.0   10 
 7/07/20  6:20a   57.0   57.8   57.0    88   53.5   6.0     S   1.00  12.0    SE   56.0   57.0   56.0   53.9  30.139  0.00  0.00    13     0.19     14     0.0  0.00   0.0   0.056   0.000   73.4    53   55.2   73.3   9.71  .0739    0.000   204    7    100.0   10 
 7/07/20  6:30a   56.1   57.0   56.1    92   53.8   9.0     S   1.50  14.0     S   53.1   56.2   53.2   51.3  30.140  0.00  0.00    16     0.23     19     0.0  0.00   0.0   0.062   0.000   73.3    53   55.1   73.2   9.72  .0739    0.000   203    7    100.0   10 
 7/07/20  6:40a   55.9   56.1   55.9    92   53.6   8.0   SSW   1.33  14.0    SE   53.6   56.0   53.7   52.1  30.142  0.00  0.00    30     0.43     39     0.0  0.00   0.0   0.063   0.000   73.2    53   55.0   73.0   9.72  .0739    0.000   201    7    100.0   10 
 7/07/20  6:50a   56.3   56.3   55.9    91   53.7   6.0     S   1.00   9.0   SSE   55.2   56.4   55.3   55.6  30.142  0.00  0.00    46     0.66     51     0.0  0.00   0.0   0.060   0.000   73.2    53   55.0   73.0   9.72  .0739    0.000   201    7    100.0   10 
 7/07/20  7:00a   56.4   56.4   56.3    91   53.8   5.0     S   0.83   9.0     S   55.7   56.5   55.8   56.7  30.144  0.00  0.00    60     0.86     63     0.0  0.00   0.0   0.060   0.000   73.2    54   55.6   73.1   9.89  .0739    0.001   202    7    100.0   10 
 7/07/20  7:10a   56.4   56.4   56.3    91   53.8   6.0     S   1.00  10.0    SW   55.3   56.5   55.4   56.9  30.145  0.00  0.00    75     1.08     83     0.0  0.00   0.0   0.060   0.000   73.1    54   55.5   73.0   9.89  .0739    0.000   202    7    100.0   10 
 7/07/20  7:20a   56.5   56.6   56.4    90   53.6   6.0     S   1.00   9.0   SSW   55.4   56.6   55.5   57.7  30.144  0.00  0.00    93     1.33     98     0.0  0.00   0.0   0.059   0.000   73.1    54   55.5   73.0   9.89  .0739    0.000   202    7    100.0   10 
 7/07/20  7:30a   56.8   56.8   56.5    90   53.9   5.0     S   0.83   9.0   SSW   56.2   56.9   56.3   58.5  30.144  0.00  0.00    95     1.36    107     0.0  0.00   0.0   0.057   0.000   73.1    54   55.5   73.0   9.89  .0739    0.000   202    7    100.0   10 
 7/07/20  7:40a   57.2   57.2   56.7    88   53.7   4.0     S   0.67   7.0     S   57.2   57.2   57.2   59.4  30.145  0.00  0.00    99     1.42    105     0.0  0.00   0.0   0.054   0.000   73.1    54   55.5   73.0   9.89  .0739    0.000   203    7    100.0   10 
 7/07/20  7:50a   57.6   57.6   57.2    87   53.8   4.0     S   0.67   7.0   SSW   57.6   57.6   57.6   60.2  30.147  0.00  0.00   112     1.61    120     0.0  0.00   0.0   0.051   0.000   73.1    54   55.5   73.0   9.89  .0739    0.000   202    7    100.0   10 
 7/07/20  8:00a   57.9   57.9   57.5    86   53.7   3.0     S   0.50   7.0     S   57.9   57.8   57.8   60.0  30.147  0.00  0.00   105     1.51    109     0.2  0.01   0.5   0.049   0.000   73.1    54   55.5   73.0   9.89  .0739    0.002   204    7    100.0   10 
 7/07/20  8:10a   58.3   58.3   57.8    84   53.5   4.0     S   0.67   9.0     S   58.3   58.2   58.2   62.3  30.147  0.00  0.00   166     2.38    234     0.7  0.05   0.9   0.047   0.000   73.2    54   55.6   73.1   9.89  .0739    0.000   203    7    100.0   10 
 7/07/20  8:20a   58.7   58.7   58.3    84   53.9   3.0     S   0.50   7.0     S   58.7   58.6   58.6   65.0  30.150  0.00  0.00   246     3.53    285     0.9  0.06   0.9   0.044   0.000   73.3    54   55.6   73.3   9.88  .0739    0.000   202    7    100.0   10 
 7/07/20  8:30a   58.6   58.8   58.5    83   53.5   6.0     S   1.00  11.0     S   57.9   58.5   57.8   62.0  30.153  0.00  0.00   182     2.61    192     0.8  0.06   0.9   0.044   0.000   73.3    53   55.1   73.2   9.72  .0739    0.000   203    7    100.0   10 
 7/07/20  8:40a   58.5   58.7   58.5    83   53.4   7.0     S   1.17  12.0   SSE   57.4   58.4   57.3   61.1  30.154  0.00  0.00   176     2.52    199     1.0  0.07   1.1   0.045   0.000   73.4    53   55.2   73.3   9.71  .0739    0.000   202    7    100.0   10 
 7/07/20  8:50a   58.7   58.8   58.4    82   53.2   7.0     S   1.17  10.0   SSE   57.6   58.6   57.5   61.4  30.154  0.00  0.00   184     2.64    225     1.2  0.09   1.4   0.044   0.000   73.4    53   55.2   73.3   9.71  .0739    0.000   203    7    100.0   10 
 7/07/20  9:00a   59.1   59.1   58.8    81   53.3   6.0     S   1.00  12.0   SSE   58.5   58.9   58.3   64.5  30.156  0.00  0.00   269     3.86    304     1.5  0.11   1.5   0.041   0.000   73.5    53   55.3   73.4   9.71  .0739    0.005   204    7    100.0   10 
 7/07/20  9:10a   59.2   59.3   59.0    81   53.4   7.0     S   1.17  12.0   SSE   58.2   59.1   58.1   63.4  30.155  0.00  0.00   250     3.58    295     1.6  0.11   1.8   0.040   0.000   73.5    53   55.3   73.4   9.71  .0739    0.000   203    7    100.0   10 
 7/07/20  9:20a   59.1   59.3   59.1    81   53.3   8.0     S   1.33  14.0   SSE   57.4   58.9   57.2   62.6  30.159  0.00  0.00   270     3.87    301     1.8  0.13   1.9   0.041   0.000   73.5    53   55.3   73.4   9.71  .0739    0.000   203    7    100.0   10 
 7/07/20  9:30a   58.7   59.0   58.7    82   53.2   9.0     S   1.50  12.0     S   56.1   58.6   56.0   62.1  30.160  0.00  0.00   322     4.62    343     2.0  0.14   2.1   0.044   0.000   73.6    53   55.4   73.5   9.71  .0739    0.000   203    7    100.0   10 
 7/07/20  9:40a   58.4   58.7   58.3    83   53.3   9.0   SSW   1.50  16.0   SSE   55.8   58.3   55.7   61.0  30.157  0.00  0.00   290     4.16    334     1.9  0.14   2.2   0.046   0.000   73.6    53   55.4   73.5   9.71  .0739    0.000   204    7    100.0   10 
 7/07/20  9:50a   59.4   59.4   58.4    81   53.6   8.0     S   1.33  14.0   SSE   57.8   59.3   57.7   66.4  30.157  0.00  0.00   473     6.78    580     2.7  0.19   2.9   0.039   0.000   73.7    53   55.5   73.6   9.70  .0739    0.000   202    7    100.0   10 
 7/07/20 10:00a   59.4   59.5   59.3    81   53.6   9.0     S   1.50  13.0     S   57.0   59.3   56.9   64.2  30.158  0.00  0.00   413     5.92    432     2.6  0.19   2.6   0.039   0.000   73.7    52   55.0   73.5   9.58  .0739    0.008   203    7    100.0   10 
 7/07/20 10:10a   58.9   59.5   58.9    83   53.7   9.0   SSW   1.50  14.0   SSE   56.4   58.8   56.3   63.5  30.158  0.00  0.00   416     5.96    425     2.7  0.19   2.8   0.042   0.000   73.7    52   55.0   73.5   9.58  .0739    0.000   203    7    100.0   10 
 7/07/20 10:20a   58.6   59.0   58.6    85   54.1  10.0     S   1.67  14.0     S   55.3   58.6   55.3   62.1  30.159  0.00  0.00   408     5.85    424     2.9  0.21   3.0   0.044   0.000   73.6    52   54.9   73.4   9.58  .0739    0.000   205    7    100.0   10 
 7/07/20 10:30a   58.9   58.9   58.4    85   54.4  10.0     S   1.67  14.0   SSE   55.7   58.9   55.7   63.3  30.159  0.00  0.00   465     6.67    527     3.3  0.24   3.6   0.042   0.000   73.6    53   55.4   73.5   9.71  .0739    0.000   204    7    100.0   10 
 7/07/20 10:40a   58.9   59.0   58.8    85   54.4   9.0     S   1.50  13.0     S   56.4   58.9   56.4   65.3  30.159  0.00  0.00   557     7.98    587     3.8  0.27   3.9   0.042   0.000   73.6    53   55.4   73.5   9.71  .0739    0.000   204    7    100.0   10 
 7/07/20 10:50a   59.1   59.1   58.9    84   54.3  10.0     S   1.67  14.0   SSE   55.9   59.1   55.9   63.7  30.164  0.00  0.00   502     7.20    527     3.7  0.26   3.7   0.041   0.000   73.5    53   55.3   73.4   9.71  .0739    0.000   201    7    100.0   10 
 7/07/20 11:00a   58.9   59.1   58.8    85   54.4   9.0     S   1.50  12.0     S   56.4   58.9   56.4   64.3  30.164  0.00  0.00   492     7.05    517     3.8  0.27   4.0   0.042   0.000   73.5    53   55.3   73.4   9.71  .0739    0.011   199    7    100.0   10 
 7/07/20 11:10a   59.2   59.2   58.9    84   54.4   9.0     S   1.50  13.0   SSE   56.7   59.2   56.7   64.9  30.167  0.00  0.00   513     7.35    531     4.0  0.29   4.0   0.040   0.000   73.5    53   55.3   73.4   9.71  .0739    0.000   203    7    100.0   10 
 7/07/20 11:20a   59.2   59.2   59.1    84   54.4   9.0     S   1.50  12.0   SSW   56.7   59.2   56.7   64.8  30.166  0.00  0.00   515     7.38    541     4.1  0.29   4.2   0.040   0.000   73.6    53   55.4   73.5   9.71  .0739    0.000   201    7    100.0   10 
 7/07/20 11:30a   59.7   59.7   59.2    81   53.9   9.0     S   1.50  16.0     S   57.3   59.6   57.2   65.7  30.167  0.00  0.00   547     7.84    606     4.4  0.31   4.9   0.037   0.000   73.6    53   55.4   73.5   9.71  .0739    0.000   202    7    100.0   10 
 7/07/20 11:40a   59.7   60.0   59.6    80   53.5  10.0     S   1.67  15.0   SSE   56.6   59.6   56.5   65.7  30.170  0.00  0.00   646     9.26    698     5.1  0.36   5.3   0.037   0.000   73.6    52   54.9   73.4   9.58  .0740    0.000   203    7    100.0   10 
 7/07/20 11:50a   60.2   60.2   59.6    79   53.7   9.0   SSW   1.50  14.0     S   57.9   60.1   57.8   67.9  30.170  0.00  0.00   754    10.81    796     5.7  0.41   5.9   0.033   0.000   73.6    52   54.9   73.4   9.58  .0740    0.000   203    7    100.0   10 
 7/07/20 12:00p   60.4   60.7   60.2    77   53.2  10.0     S   1.67  14.0   SSE   57.4   60.2   57.2   66.9  30.173  0.00  0.00   727    10.42    779     5.9  0.42   6.4   0.032   0.000   73.6    52   54.9   73.4   9.58  .0740    0.014   203    7    100.0   10 
 7/07/20 12:10p   60.4   60.6   60.0    78   53.5   9.0     S   1.50  15.0   SSE   58.2   60.2   58.0   67.8  30.174  0.00  0.00   680     9.75    737     5.9  0.42   6.6   0.032   0.000   73.7    52   55.0   73.5   9.58  .0740    0.000   202    7    100.0   10 
 7/07/20 12:20p   59.5   60.4   59.5    82   54.0  10.0     S   1.67  13.0     S   56.4   59.4   56.3   65.8  30.180  0.00  0.00   689     9.88    847     5.8  0.41   6.6   0.038   0.000   73.7    52   55.0   73.5   9.58  .0740    0.000   204    7    100.0   10 
 7/07/20 12:30p   59.4   59.5   59.3    82   53.9   9.0     S   1.50  11.0     S   57.0   59.3   56.9   66.2  30.181  0.00  0.00   624     8.95    731     5.2  0.37   5.7   0.039   0.000   73.8    53   55.6   73.8   9.70  .0739    0.000   202    7    100.0   10 
 7/07/20 12:40p   59.8   59.8   59.3    81   54.0   8.0     S   1.33  11.0     S   58.3   59.7   58.2   67.0  30.182  0.00  0.00   553     7.93    642     4.7  0.34   5.5   0.036   0.000   73.8    53   55.6   73.8   9.70  .0739    0.000   203    7    100.0   10 
 7/07/20 12:50p   60.4   60.4   59.7    80   54.2   8.0     S   1.33  12.0   SSE   59.0   60.3   58.9   68.2  30.181  0.00  0.00   586     8.40    684     5.2  0.37   6.1   0.032   0.000   73.9    53   55.7   73.9   9.69  .0739    0.000   205    7    100.0   10 
 7/07/20  1:00p   60.3   60.5   60.3    80   54.1   8.0     S   1.33  12.0   SSE   58.9   60.2   58.8   69.5  30.183  0.00  0.00   784    11.24    944     6.8  0.49   7.7   0.033   0.000   74.0    53   55.8   74.0   9.69  .0739    0.015   201    7    100.0   10 
 7/07/20  1:10p   60.2   60.3   60.1    80   54.0   8.0     S   1.33  13.0     S   58.7   60.1   58.6   69.2  30.185  0.00  0.00   743    10.65    819     6.3  0.45   6.6   0.033   0.000   74.0    53   55.8   74.0   9.69  .0739    0.000   204    7    100.0   10 
 7/07/20  1:20p   60.0   60.4   60.0    82   54.5   8.0     S   1.33  12.0     S   58.5   60.0   58.5   68.8  30.187  0.00  0.00   696     9.98    826     6.1  0.44   6.9   0.035   0.000   74.1    53   55.9   74.1   9.69  .0739    0.000   204    7    100.0   10 
 7/07/20  1:30p   59.4   60.0   59.2    85   54.9   8.0     S   1.33  12.0   SSE   57.8   59.4   57.8   68.0  30.190  0.00  0.00   686     9.83    747     5.9  0.42   6.6   0.039   0.000   74.2    53   56.0   74.3   9.68  .0739    0.000   205    7    100.0   10 
 7/07/20  1:40p   59.1   59.4   59.1    86   54.9   7.0     S   1.17  11.0     S   58.1   59.1   58.1   69.0  30.190  0.00  0.00   708    10.15    786     6.1  0.44   6.3   0.041   0.000   74.2    53   56.0   74.3   9.68  .0739    0.000   204    7    100.0   10 
 7/07/20  1:50p   58.6   59.1   58.6    88   55.1   7.0     S   1.17  11.0     S   57.5   58.7   57.6   68.3  30.191  0.00  0.00   681     9.76    802     5.9  0.42   6.6   0.044   0.000   74.4    53   56.2   74.5   9.67  .0739    0.000   203    7    100.0   10 
 7/07/20  2:00p   58.5   58.7   58.5    89   55.3   9.0     S   1.50  12.0   SSW   55.9   58.6   56.0   65.5  30.192  0.00  0.00   637     9.13    735     5.5  0.39   6.0   0.045   0.000   74.4    53   56.2   74.5   9.67  .0739    0.015   204    7    100.0   10 
 7/07/20  2:10p   58.0   58.5   57.9    92   55.7   8.0     S   1.33  12.0   SSE   56.1   58.2   56.3   64.3  30.193  0.00  0.00   485     6.95    513     4.3  0.31   4.8   0.049   0.000   74.4    53   56.2   74.5   9.67  .0739    0.000   203    7    100.0   10 
 7/07/20  2:20p   57.9   58.0   57.7    93   55.9   7.0     S   1.17  10.0     S   56.7   58.1   56.9   63.4  30.192  0.00  0.00   379     5.43    418     3.4  0.24   3.7   0.049   0.000   74.4    53   56.2   74.5   9.67  .0739    0.000   203    7    100.0   10 
 7/07/20  2:30p   58.5   58.5   58.0    93   56.5   6.0     S   1.00   9.0     S   57.8   58.8   58.1   66.2  30.190  0.00  0.00   458     6.57    543     4.1  0.29   4.7   0.045   0.000   74.5    54   56.8   74.8   9.86  .0738    0.000   204    7    100.0   10 
 7/07/20  2:40p   58.4   58.6   58.4    92   56.1   5.0     S   0.83   9.0   SSE   58.1   58.6   58.3   68.7  30.191  0.00  0.00   624     8.95    728     5.3  0.38   5.8   0.046   0.000   74.6    54   56.9   74.9   9.86  .0738    0.000   204    7    100.0   10 
 7/07/20  2:50p   58.8   58.8   58.4    92   56.5   6.0     S   1.00   9.0   SSW   58.2   59.1   58.5   68.1  30.192  0.00  0.00   553     7.93    591     4.6  0.33   4.7   0.043   0.000   74.7    54   56.9   75.0   9.86  .0738    0.000   204    7    100.0   10 
 7/07/20  3:00p   59.2   59.2   58.8    90   56.3   5.0     S   0.83   8.0    SE   59.0   59.4   59.2   68.9  30.191  0.00  0.00   561     8.04    684     4.8  0.34   5.7   0.040   0.000   74.7    54   56.9   75.0   9.86  .0738    0.011   201    7    100.0   10 
 7/07/20  3:10p   59.9   59.9   59.2    89   56.6   6.0     S   1.00  10.0   SSE   59.5   60.2   59.8   70.9  30.188  0.00  0.00   705    10.11    826     5.9  0.42   7.5   0.035   0.000   74.8    54   57.0   75.2   9.85  .0738    0.000   202    7    100.0   10 
 7/07/20  3:20p   60.1   60.2   59.9    88   56.5   7.0     S   1.17   9.0   SSE   59.3   60.3   59.5   70.5  30.187  0.00  0.00   760    10.89    967     6.4  0.46   7.3   0.034   0.000   74.8    54   57.0   75.2   9.85  .0737    0.000   203    7    100.0   10 
 7/07/20  3:30p   60.1   60.2   60.0    88   56.5   6.0     S   1.00  10.0   SSE   59.7   60.3   59.9   71.0  30.188  0.00  0.00   889    12.74   1016     6.3  0.45   7.0   0.034   0.000   74.8    54   57.0   75.2   9.85  .0738    0.000   202    7    100.0   10 
 7/07/20  3:40p   60.2   60.3   60.1    89   56.9   5.0     S   0.83   8.0   SSE   60.2   60.5   60.5   70.8  30.191  0.00  0.00   597     8.56    756     4.7  0.34   5.5   0.033   0.000   74.9    54   57.1   75.3   9.85  .0737    0.000   203    7    100.0   10 
 7/07/20  3:50p   60.4   60.5   60.1    88   56.8   4.0     S   0.67   7.0   SSE   60.4   60.7   60.7   71.1  30.190  0.00  0.00   606     8.69    715     4.7  0.34   5.6   0.032   0.000   75.0    54   57.2   75.4   9.85  .0737    0.000   200    7    100.0   10 
 7/07/20  4:00p   60.6   60.6   60.4    88   57.0   4.0     S   0.67   6.0     S   60.6   60.9   60.9   72.0  30.188  0.00  0.00   692     9.92    749     4.6  0.33   5.1   0.031   0.000   75.1    54   57.3   75.5   9.85  .0737    0.015   203    7    100.0   10 
 7/07/20  4:10p   61.1   61.1   60.5    88   57.5   4.0     S   0.67   6.0     S   61.1   61.4   61.4   71.9  30.186  0.00  0.00   594     8.52    643     4.2  0.30   4.9   0.027   0.000   75.2    54   57.4   75.6   9.85  .0737    0.000   203    7    100.0   10 
Email: AdamSPAM@StormwatchersRetreat.com (To send me email remove the word 'SPAM' from my email address.)